Terminal Aerodrome Forecast
Issued by NWS

Home | Current Version | Previous Version | Text Only | Print | Product List | Glossary On
Versions: 1 2 3 4 5 6 7 8 9 10 11 12 13 14 15 16 17 18 19 20 21 22 23 24 25 26 27 28 29 30 31 32 33
000
FTUS45 KGJT 051232 AAA
TAFASE
TAF AMD
KASE 051232Z 0513/0612 17003KT P6SM VCSH SCT080 SCT090 BKN110
     FM051400 VRB03KT P6SM FEW080 BKN120
     FM052000 24010KT P6SM VCSH SCT080 BKN140
     FM060300 21006KT P6SM SCT080 SCT140
     FM060600 19004KT P6SM SCT140=

USA.gov is the U.S. government's official web portal to all federal, state and local government web resources and services.